Time;durP1;ratioP1;P1;durP2;ratioP2;P2;SDS_P1;SDS_P2;PMS_P1;PMS_P2;Temp;Humidity;BMP_temperature;BMP_pressure;BME280_temperature;BME280_humidity;BME280_pressure;Samples;Min_cycle;Max_cycle;Signal;HPM_P1;HPM_P2
2024/04/07 00:00:23;;;;;;;4.85;2.80;;;;;;;;;;6148126;23;20017;-70
2024/04/07 00:02:52;;;;;;;9.70;2.40;;;;;;;;;;6143255;23;20056;-69
2024/04/07 00:05:17;;;;;;;6.68;2.97;;;;;;;;;;6168531;23;20043;-71
2024/04/07 00:07:43;;;;;;;6.85;2.78;;;;;;;;;;6144534;23;20709;-69
2024/04/07 00:10:09;;;;;;;5.55;2.55;;;;;;;;;;6141193;23;20017;-69
2024/04/07 00:12:37;;;;;;;6.25;2.60;;;;;;;;;;6124790;23;20044;-69
2024/04/07 00:15:05;;;;;;;5.22;2.35;;;;;;;;;;6114690;23;20085;-70
2024/04/07 00:17:30;;;;;;;6.47;3.30;;;;;;;;;;6124873;23;20048;-70
2024/04/07 00:19:56;;;;;;;5.63;2.78;;;;;;;;;;6145304;23;20021;-70
2024/04/07 00:22:23;;;;;;;7.43;2.83;;;;;;;;;;6135505;23;20479;-70
2024/04/07 00:24:49;;;;;;;6.18;2.95;;;;;;;;;;6149564;23;20021;-71
2024/04/07 00:27:14;;;;;;;7.20;2.75;;;;;;;;;;6117675;23;20017;-70
2024/04/07 00:29:39;;;;;;;4.88;3.10;;;;;;;;;;6149127;23;20025;-71
2024/04/07 00:32:05;;;;;;;6.05;2.60;;;;;;;;;;6145096;23;20028;-70
2024/04/07 00:34:31;;;;;;;6.40;3.55;;;;;;;;;;6141376;23;20406;-69
2024/04/07 00:36:56;;;;;;;7.18;3.20;;;;;;;;;;6143415;23;20071;-71
2024/04/07 00:39:22;;;;;;;7.00;3.53;;;;;;;;;;6142273;23;20072;-71
2024/04/07 00:41:47;;;;;;;7.88;4.03;;;;;;;;;;6148821;23;20027;-70
2024/04/07 00:44:13;;;;;;;8.45;5.10;;;;;;;;;;6142834;23;20391;-71
2024/04/07 00:46:40;;;;;;;5.82;4.10;;;;;;;;;;6148494;23;20024;-70
2024/04/07 00:49:06;;;;;;;6.72;3.67;;;;;;;;;;6144960;23;20024;-70
2024/04/07 00:51:32;;;;;;;6.63;3.72;;;;;;;;;;6142986;23;20036;-70
2024/04/07 00:53:57;;;;;;;10.15;3.72;;;;;;;;;;6150729;23;20036;-70
2024/04/07 00:56:24;;;;;;;8.25;3.60;;;;;;;;;;6143341;23;20025;-70
2024/04/07 00:58:50;;;;;;;7.60;3.40;;;;;;;;;;6151195;23;20347;-70
2024/04/07 01:01:15;;;;;;;6.40;3.53;;;;;;;;;;6170026;23;20032;-70
2024/04/07 01:03:40;;;;;;;10.52;4.15;;;;;;;;;;6115456;23;20852;-70
2024/04/07 01:06:06;;;;;;;9.60;3.70;;;;;;;;;;6150353;23;20032;-70
2024/04/07 01:08:31;;;;;;;9.50;3.92;;;;;;;;;;6141383;23;20025;-70
2024/04/07 01:10:57;;;;;;;6.10;3.83;;;;;;;;;;6150673;23;20371;-70
2024/04/07 01:13:25;;;;;;;6.93;3.53;;;;;;;;;;6150452;23;20029;-70
2024/04/07 01:15:51;;;;;;;6.70;3.92;;;;;;;;;;6138014;23;20521;-69
2024/04/07 01:18:16;;;;;;;7.25;3.83;;;;;;;;;;6146508;23;20033;-69
2024/04/07 01:20:42;;;;;;;10.70;3.60;;;;;;;;;;6143945;23;20781;-70
2024/04/07 01:23:13;;;;;;;8.60;3.70;;;;;;;;;;6149375;23;20971;-70
2024/04/07 01:25:38;;;;;;;13.13;3.60;;;;;;;;;;6151077;23;20021;-69
2024/04/07 01:28:04;;;;;;;12.02;3.80;;;;;;;;;;6143716;23;20043;-70
2024/04/07 01:30:31;;;;;;;9.55;3.30;;;;;;;;;;6144907;23;20025;-70
2024/04/07 01:32:57;;;;;;;6.82;3.03;;;;;;;;;;6118923;23;20024;-69
2024/04/07 01:35:22;;;;;;;7.25;3.20;;;;;;;;;;6149961;23;20447;-69
2024/04/07 01:37:48;;;;;;;10.27;3.22;;;;;;;;;;6143865;23;20087;-69
2024/04/07 01:40:13;;;;;;;6.97;2.90;;;;;;;;;;6148689;23;20103;-71
2024/04/07 01:42:39;;;;;;;9.68;2.53;;;;;;;;;;6145412;23;20756;-69
2024/04/07 01:45:06;;;;;;;6.53;2.35;;;;;;;;;;6138472;23;20447;-70
2024/04/07 01:47:32;;;;;;;8.98;2.35;;;;;;;;;;6150120;23;20043;-70
2024/04/07 01:49:58;;;;;;;5.55;2.40;;;;;;;;;;6119889;23;20527;-70
2024/04/07 01:52:23;;;;;;;8.15;2.08;;;;;;;;;;6149582;23;20053;-69
2024/04/07 01:54:48;;;;;;;4.45;1.70;;;;;;;;;;6150722;23;20063;-70
2024/04/07 01:57:14;;;;;;;6.90;1.40;;;;;;;;;;6137461;23;20336;-71
2024/04/07 01:59:39;;;;;;;3.15;1.40;;;;;;;;;;6146913;23;20399;-69
2024/04/07 02:02:05;;;;;;;5.88;1.40;;;;;;;;;;6143118;23;20021;-69
2024/04/07 02:04:31;;;;;;;8.70;1.15;;;;;;;;;;6149740;23;20032;-70
2024/04/07 02:06:57;;;;;;;5.18;1.40;;;;;;;;;;6149213;23;20514;-69
2024/04/07 02:09:22;;;;;;;3.17;1.30;;;;;;;;;;6142954;23;20029;-71
2024/04/07 02:11:48;;;;;;;6.07;1.33;;;;;;;;;;6142100;23;20036;-69
2024/04/07 02:14:14;;;;;;;8.20;1.52;;;;;;;;;;6143171;23;20029;-69
2024/04/07 02:16:39;;;;;;;5.68;1.20;;;;;;;;;;6150306;23;20032;-70
2024/04/07 02:19:06;;;;;;;7.20;1.55;;;;;;;;;;6149165;23;20025;-69
2024/04/07 02:21:31;;;;;;;4.65;1.52;;;;;;;;;;6141156;23;20814;-70
2024/04/07 02:23:57;;;;;;;7.78;1.30;;;;;;;;;;6145283;23;20021;-69
2024/04/07 02:26:22;;;;;;;4.88;1.20;;;;;;;;;;6136603;23;20020;-69
2024/04/07 02:28:47;;;;;;;3.90;1.23;;;;;;;;;;6149269;23;20021;-69
2024/04/07 02:31:13;;;;;;;3.25;0.98;;;;;;;;;;6149632;23;20025;-68
2024/04/07 02:33:39;;;;;;;5.20;1.33;;;;;;;;;;6143207;23;20081;-71
2024/04/07 02:36:04;;;;;;;3.90;1.17;;;;;;;;;;6149344;23;20025;-71
2024/04/07 02:38:29;;;;;;;3.05;1.00;;;;;;;;;;6114076;23;20099;-70
2024/04/07 02:40:55;;;;;;;5.45;1.42;;;;;;;;;;6121696;23;20336;-69
2024/04/07 02:43:20;;;;;;;3.28;1.30;;;;;;;;;;6121171;23;20025;-69
2024/04/07 02:48:30;;;;;;;3.80;0.98;;;;;;;;;;6149351;23;20028;-69
2024/04/07 02:50:57;;;;;;;4.15;0.98;;;;;;;;;;6143314;23;20035;-69
2024/04/07 02:53:23;;;;;;;2.08;0.98;;;;;;;;;;6141949;23;20070;-69
2024/04/07 02:55:48;;;;;;;2.72;1.02;;;;;;;;;;6141276;23;20025;-70
2024/04/07 02:58:14;;;;;;;4.72;1.00;;;;;;;;;;6148425;23;20095;-71
2024/04/07 03:00:39;;;;;;;3.65;1.00;;;;;;;;;;6124734;23;20025;-70
2024/04/07 03:03:05;;;;;;;2.90;0.95;;;;;;;;;;6141556;23;20017;-68
2024/04/07 03:05:30;;;;;;;5.93;1.23;;;;;;;;;;6146215;23;20029;-71
2024/04/07 03:07:55;;;;;;;4.65;1.35;;;;;;;;;;6136358;23;20036;-69
2024/04/07 03:10:21;;;;;;;2.95;0.80;;;;;;;;;;6147894;23;20028;-69
2024/04/07 03:12:46;;;;;;;3.90;1.00;;;;;;;;;;6148681;23;20681;-70
2024/04/07 03:15:12;;;;;;;3.38;1.10;;;;;;;;;;6142227;23;20025;-69
2024/04/07 03:17:37;;;;;;;3.60;1.02;;;;;;;;;;6148934;23;20021;-69
2024/04/07 03:20:03;;;;;;;5.13;0.90;;;;;;;;;;6135828;23;20029;-71
2024/04/07 03:22:29;;;;;;;5.60;1.10;;;;;;;;;;6142994;23;20021;-69
2024/04/07 03:24:54;;;;;;;2.60;0.77;;;;;;;;;;6147705;23;20411;-69
2024/04/07 03:27:20;;;;;;;2.95;0.85;;;;;;;;;;6141012;23;20387;-69
2024/04/07 03:29:46;;;;;;;3.28;0.70;;;;;;;;;;6147689;23;20025;-69
2024/04/07 03:32:11;;;;;;;4.85;1.00;;;;;;;;;;6140376;23;20028;-70
2024/04/07 03:34:37;;;;;;;3.33;0.70;;;;;;;;;;6142588;23;20021;-70
2024/04/07 03:37:06;;;;;;;3.80;0.80;;;;;;;;;;6144386;23;20028;-70
2024/04/07 03:39:32;;;;;;;3.03;0.70;;;;;;;;;;6144882;23;20021;-70
2024/04/07 03:41:57;;;;;;;3.10;1.05;;;;;;;;;;6148413;23;20039;-69
2024/04/07 03:44:23;;;;;;;3.80;0.90;;;;;;;;;;6138848;23;20021;-70
2024/04/07 03:46:48;;;;;;;3.97;0.70;;;;;;;;;;6120121;23;20025;-69
2024/04/07 03:49:14;;;;;;;2.90;0.93;;;;;;;;;;6135519;23;20055;-70
2024/04/07 03:51:39;;;;;;;4.35;0.95;;;;;;;;;;6148607;23;20660;-70
2024/04/07 03:54:06;;;;;;;2.30;0.88;;;;;;;;;;6148800;23;20020;-69
2024/04/07 03:56:31;;;;;;;3.22;0.80;;;;;;;;;;6141517;23;20025;-70
2024/04/07 03:58:56;;;;;;;3.53;0.85;;;;;;;;;;6147312;23;20023;-69
2024/04/07 04:01:22;;;;;;;2.30;0.70;;;;;;;;;;6135129;23;20048;-70
2024/04/07 04:03:47;;;;;;;5.13;0.98;;;;;;;;;;6141675;23;20091;-69
2024/04/07 04:06:13;;;;;;;2.55;0.82;;;;;;;;;;6146957;23;20025;-69
2024/04/07 04:08:38;;;;;;;2.15;0.88;;;;;;;;;;6139625;23;20025;-69
2024/04/07 04:11:05;;;;;;;2.13;0.95;;;;;;;;;;6147761;23;20104;-71
2024/04/07 04:13:36;;;;;;;1.38;0.73;;;;;;;;;;6139928;23;20613;-70
2024/04/07 04:16:02;;;;;;;1.48;0.50;;;;;;;;;;6141990;23;20313;-70
2024/04/07 04:18:27;;;;;;;3.28;0.63;;;;;;;;;;6143073;23;20031;-70
2024/04/07 04:20:53;;;;;;;3.05;0.60;;;;;;;;;;6139389;23;20056;-69
2024/04/07 04:23:19;;;;;;;3.10;0.75;;;;;;;;;;6149277;23;20459;-70
2024/04/07 04:25:54;;;;;;;2.08;0.60;;;;;;;;;;6144076;23;20088;-70
2024/04/07 04:28:20;;;;;;;3.85;0.70;;;;;;;;;;6147446;23;20037;-70
2024/04/07 04:30:56;;;;;;;3.80;0.93;;;;;;;;;;6138066;23;20060;-71
2024/04/07 04:33:22;;;;;;;1.75;0.50;;;;;;;;;;6149756;23;20455;-71
2024/04/07 04:35:47;;;;;;;1.80;0.70;;;;;;;;;;6125599;23;20024;-70
2024/04/07 04:38:13;;;;;;;1.20;0.60;;;;;;;;;;6119492;23;20029;-70
2024/04/07 04:40:38;;;;;;;2.28;0.60;;;;;;;;;;6150820;23;20056;-70
2024/04/07 04:43:04;;;;;;;1.02;0.43;;;;;;;;;;6140016;23;20027;-70
2024/04/07 04:45:29;;;;;;;1.73;0.50;;;;;;;;;;6146102;23;20437;-70
2024/04/07 04:47:55;;;;;;;2.35;0.52;;;;;;;;;;6150737;23;20020;-70
2024/04/07 04:50:20;;;;;;;2.42;0.50;;;;;;;;;;6118785;23;20028;-71
2024/04/07 04:52:46;;;;;;;0.82;0.40;;;;;;;;;;6150864;23;20028;-70
2024/04/07 04:55:11;;;;;;;1.38;0.45;;;;;;;;;;6143992;23;20475;-70
2024/04/07 04:57:37;;;;;;;0.73;0.57;;;;;;;;;;6146380;23;20448;-70
2024/04/07 05:00:02;;;;;;;0.80;0.50;;;;;;;;;;6145905;23;20474;-70
2024/04/07 05:02:28;;;;;;;2.55;0.50;;;;;;;;;;6142682;23;20101;-70
2024/04/07 05:04:53;;;;;;;5.85;0.75;;;;;;;;;;6150441;23;20083;-70
2024/04/07 05:07:18;;;;;;;1.17;0.40;;;;;;;;;;6143000;23;20510;-70
2024/04/07 05:09:47;;;;;;;2.13;0.40;;;;;;;;;;6150664;23;20025;-70
2024/04/07 05:12:13;;;;;;;2.83;0.55;;;;;;;;;;6146005;23;20351;-70
2024/04/07 05:14:38;;;;;;;2.17;0.52;;;;;;;;;;6138713;23;20021;-70
2024/04/07 05:17:03;;;;;;;1.05;0.50;;;;;;;;;;6150783;23;20083;-70
2024/04/07 05:19:29;;;;;;;2.15;0.47;;;;;;;;;;6143368;23;20021;-69
2024/04/07 05:21:54;;;;;;;0.47;0.30;;;;;;;;;;6150904;23;20088;-69
2024/04/07 05:24:21;;;;;;;1.88;0.40;;;;;;;;;;6148722;23;20052;-70
2024/04/07 05:26:47;;;;;;;1.50;0.60;;;;;;;;;;6117153;23;20021;-70
2024/04/07 05:29:12;;;;;;;1.20;0.50;;;;;;;;;;6146211;23;20025;-70
2024/04/07 05:31:38;;;;;;;1.15;0.80;;;;;;;;;;6143546;23;20078;-70
2024/04/07 05:34:03;;;;;;;1.02;0.40;;;;;;;;;;6149267;23;20064;-67
2024/04/07 05:36:29;;;;;;;1.80;0.50;;;;;;;;;;6143490;23;20029;-69
2024/04/07 05:38:54;;;;;;;2.03;0.43;;;;;;;;;;6149079;23;20025;-68
2024/04/07 05:41:19;;;;;;;1.45;0.50;;;;;;;;;;6144824;23;20572;-68
2024/04/07 05:43:45;;;;;;;1.35;0.50;;;;;;;;;;6138695;23;20809;-72
2024/04/07 05:46:11;;;;;;;1.48;0.70;;;;;;;;;;6125849;23;20033;-70
2024/04/07 05:48:37;;;;;;;1.65;0.55;;;;;;;;;;6143074;23;20077;-71
2024/04/07 05:51:03;;;;;;;2.20;0.50;;;;;;;;;;6174574;23;20056;-71
2024/04/07 05:53:29;;;;;;;0.90;0.40;;;;;;;;;;6150188;23;20029;-71
2024/04/07 05:55:54;;;;;;;1.23;0.50;;;;;;;;;;6138675;23;20033;-71
2024/04/07 05:58:20;;;;;;;0.75;0.50;;;;;;;;;;6144544;23;20033;-71
2024/04/07 06:00:45;;;;;;;1.77;0.50;;;;;;;;;;6143469;23;20108;-70
2024/04/07 06:03:11;;;;;;;1.80;0.43;;;;;;;;;;6149870;23;20024;-71
2024/04/07 06:05:37;;;;;;;2.38;0.30;;;;;;;;;;6150323;23;20025;-70
2024/04/07 06:08:03;;;;;;;3.10;0.50;;;;;;;;;;6142999;23;20399;-70
2024/04/07 06:10:29;;;;;;;1.83;0.50;;;;;;;;;;6143968;23;20467;-70
2024/04/07 06:12:55;;;;;;;1.80;0.50;;;;;;;;;;6138583;23;20036;-70
2024/04/07 06:15:21;;;;;;;1.20;0.40;;;;;;;;;;6149548;23;20025;-70
2024/04/07 06:17:47;;;;;;;0.30;0.30;;;;;;;;;;6149549;23;20028;-71
2024/04/07 06:20:12;;;;;;;1.17;0.47;;;;;;;;;;6141705;23;20043;-71
2024/04/07 06:22:38;;;;;;;3.33;0.60;;;;;;;;;;6149424;23;20025;-70
2024/04/07 06:25:04;;;;;;;1.45;0.60;;;;;;;;;;6137575;23;20017;-72
2024/04/07 06:27:30;;;;;;;2.83;0.50;;;;;;;;;;6150327;23;20017;-72
2024/04/07 06:29:58;;;;;;;7.55;0.95;;;;;;;;;;6149858;23;20021;-72
2024/04/07 06:32:24;;;;;;;;;;;;;;;;;;6141787;23;20600;-72
2024/04/07 06:34:49;;;;;;;1.70;0.57;;;;;;;;;;6147415;23;19927;-71
2024/04/07 06:37:14;;;;;;;2.38;0.70;;;;;;;;;;6132284;23;20024;-72
2024/04/07 06:39:40;;;;;;;2.40;0.60;;;;;;;;;;6145447;23;20025;-68
2024/04/07 06:42:05;;;;;;;2.72;0.63;;;;;;;;;;6140911;23;20309;-70
2024/04/07 06:44:31;;;;;;;1.33;0.50;;;;;;;;;;6146683;23;20029;-70
2024/04/07 06:46:56;;;;;;;3.28;1.00;;;;;;;;;;6146985;23;20025;-69
2024/04/07 06:49:22;;;;;;;4.05;0.80;;;;;;;;;;6138212;23;20048;-71
2024/04/07 06:51:47;;;;;;;1.70;0.50;;;;;;;;;;6142848;23;20127;-69
2024/04/07 06:54:13;;;;;;;3.45;0.50;;;;;;;;;;6140122;23;20502;-69
2024/04/07 06:56:38;;;;;;;2.45;0.60;;;;;;;;;;6147281;23;20027;-71
2024/04/07 06:59:04;;;;;;;1.95;0.60;;;;;;;;;;6146263;23;20048;-71
2024/04/07 07:01:29;;;;;;;3.22;0.60;;;;;;;;;;6140972;23;20021;-70
2024/04/07 07:03:55;;;;;;;2.47;0.52;;;;;;;;;;6144144;23;20044;-71
2024/04/07 07:06:20;;;;;;;2.72;0.63;;;;;;;;;;6135064;23;20745;-70
2024/04/07 07:08:45;;;;;;;1.45;0.52;;;;;;;;;;6146949;23;20029;-70
2024/04/07 07:11:12;;;;;;;1.75;0.70;;;;;;;;;;6147541;23;20025;-69
2024/04/07 07:13:42;;;;;;;3.80;0.52;;;;;;;;;;6115974;23;20021;-69
2024/04/07 07:16:08;;;;;;;2.60;0.68;;;;;;;;;;6146825;23;20028;-69
2024/04/07 07:18:34;;;;;;;1.65;0.70;;;;;;;;;;6136533;23;20029;-69
2024/04/07 07:21:00;;;;;;;4.50;0.80;;;;;;;;;;6142856;23;20021;-70
2024/04/07 07:23:25;;;;;;;2.03;0.68;;;;;;;;;;6144558;23;20060;-70
2024/04/07 07:25:52;;;;;;;3.65;0.60;;;;;;;;;;6143626;23;20573;-69
2024/04/07 07:28:18;;;;;;;2.83;0.60;;;;;;;;;;6147654;23;20025;-69
2024/04/07 07:30:43;;;;;;;1.45;0.70;;;;;;;;;;6141202;23;20083;-70
2024/04/07 07:33:08;;;;;;;2.33;0.50;;;;;;;;;;6143835;23;20031;-70
2024/04/07 07:35:37;;;;;;;3.50;0.82;;;;;;;;;;6137289;23;20430;-70
2024/04/07 07:38:02;;;;;;;3.85;0.80;;;;;;;;;;6145770;23;20025;-70
2024/04/07 07:40:28;;;;;;;1.60;0.70;;;;;;;;;;6147664;23;20021;-72
2024/04/07 07:42:53;;;;;;;2.33;0.70;;;;;;;;;;6139687;23;20021;-71
2024/04/07 07:45:20;;;;;;;2.33;0.80;;;;;;;;;;6147596;23;20021;-71
2024/04/07 07:47:46;;;;;;;3.35;0.80;;;;;;;;;;6112149;23;20025;-71
2024/04/07 07:50:12;;;;;;;2.75;0.68;;;;;;;;;;6143304;23;20827;-71
2024/04/07 07:52:37;;;;;;;2.33;0.63;;;;;;;;;;6148179;23;20091;-72
2024/04/07 07:55:03;;;;;;;3.78;0.80;;;;;;;;;;6141403;23;20027;-70
2024/04/07 07:57:28;;;;;;;3.42;0.75;;;;;;;;;;6146668;23;20028;-71
2024/04/07 07:59:54;;;;;;;4.47;1.10;;;;;;;;;;6139889;23;20021;-72
2024/04/07 08:02:19;;;;;;;3.03;0.80;;;;;;;;;;6142711;23;20024;-71
2024/04/07 08:04:45;;;;;;;3.20;0.73;;;;;;;;;;6143114;23;20025;-72
2024/04/07 08:07:10;;;;;;;3.22;0.80;;;;;;;;;;6139921;23;20025;-70
2024/04/07 08:09:36;;;;;;;3.72;0.80;;;;;;;;;;6149777;23;20052;-71
2024/04/07 08:12:01;;;;;;;4.38;0.88;;;;;;;;;;6142873;23;20025;-71
2024/04/07 08:14:27;;;;;;;4.57;1.25;;;;;;;;;;6149161;23;20025;-71
2024/04/07 08:16:52;;;;;;;3.40;0.80;;;;;;;;;;6144711;23;20068;-72
2024/04/07 08:19:18;;;;;;;3.25;0.85;;;;;;;;;;6137692;23;20095;-71
2024/04/07 08:21:43;;;;;;;3.78;0.73;;;;;;;;;;6149870;23;20024;-71
2024/04/07 08:24:09;;;;;;;2.78;0.90;;;;;;;;;;6140542;23;20024;-71
2024/04/07 08:26:34;;;;;;;5.60;1.00;;;;;;;;;;6149257;23;20544;-71
2024/04/07 08:29:00;;;;;;;2.45;0.98;;;;;;;;;;6148967;23;20033;-71
2024/04/07 08:31:25;;;;;;;3.53;1.00;;;;;;;;;;6137101;23;20021;-72
2024/04/07 08:33:51;;;;;;;5.70;1.20;;;;;;;;;;6144488;23;20036;-71
2024/04/07 08:36:16;;;;;;;6.10;1.10;;;;;;;;;;6141053;23;20489;-71
2024/04/07 08:38:41;;;;;;;6.13;0.90;;;;;;;;;;6124122;23;20854;-71
2024/04/07 08:41:10;;;;;;;4.82;1.38;;;;;;;;;;6142192;23;20035;-71
2024/04/07 08:43:39;;;;;;;1.50;0.75;;;;;;;;;;6148110;23;20021;-71
2024/04/07 08:46:08;;;;;;;2.88;0.80;;;;;;;;;;6142419;23;20025;-73
2024/04/07 08:48:34;;;;;;;4.95;1.00;;;;;;;;;;6138987;23;20032;-72
2024/04/07 08:51:00;;;;;;;3.67;1.00;;;;;;;;;;6148917;23;20095;-71
2024/04/07 08:53:26;;;;;;;2.67;0.80;;;;;;;;;;6142256;23;20025;-70
2024/04/07 08:55:51;;;;;;;6.97;1.00;;;;;;;;;;6124162;23;20029;-71
2024/04/07 08:58:17;;;;;;;3.67;0.80;;;;;;;;;;6123140;23;20021;-71
2024/04/07 09:00:43;;;;;;;4.18;1.30;;;;;;;;;;6136281;23;20705;-71
2024/04/07 09:03:09;;;;;;;3.28;0.90;;;;;;;;;;6171040;23;20039;-70
2024/04/07 09:05:35;;;;;;;4.03;1.10;;;;;;;;;;6142438;23;20523;-70
2024/04/07 09:08:00;;;;;;;4.15;0.95;;;;;;;;;;6124144;23;20025;-72
2024/04/07 09:10:26;;;;;;;1.88;0.70;;;;;;;;;;6149213;23;20036;-71
2024/04/07 09:12:52;;;;;;;3.63;1.00;;;;;;;;;;6141637;23;20028;-70
2024/04/07 09:15:17;;;;;;;3.42;0.90;;;;;;;;;;6146783;23;20021;-71
2024/04/07 09:17:43;;;;;;;3.58;0.90;;;;;;;;;;6144660;23;20068;-72
2024/04/07 09:20:18;;;;;;;5.45;0.93;;;;;;;;;;6151123;23;20099;-72
2024/04/07 09:22:45;;;;;;;5.97;0.90;;;;;;;;;;6149597;23;20021;-73
2024/04/07 09:25:10;;;;;;;2.45;0.98;;;;;;;;;;6144485;23;20025;-71
2024/04/07 09:27:35;;;;;;;3.28;1.25;;;;;;;;;;6146033;23;20522;-72
2024/04/07 09:30:04;;;;;;;3.35;0.98;;;;;;;;;;6143163;23;20033;-72
2024/04/07 09:32:29;;;;;;;3.58;0.75;;;;;;;;;;6151551;23;20037;-71
2024/04/07 09:34:55;;;;;;;1.88;0.80;;;;;;;;;;6145568;23;20024;-72
2024/04/07 09:37:20;;;;;;;2.08;0.77;;;;;;;;;;6149059;23;20336;-71
2024/04/07 09:39:47;;;;;;;4.68;0.98;;;;;;;;;;6148880;23;20104;-72
2024/04/07 09:42:18;;;;;;;2.90;0.70;;;;;;;;;;6139872;23;20032;-71
2024/04/07 09:44:45;;;;;;;3.65;1.13;;;;;;;;;;6151278;23;20025;-71
2024/04/07 09:47:13;;;;;;;2.67;0.90;;;;;;;;;;6143894;23;20029;-71
2024/04/07 09:49:39;;;;;;;3.65;0.80;;;;;;;;;;6151449;23;20388;-71
2024/04/07 09:52:04;;;;;;;4.47;1.10;;;;;;;;;;6149927;23;20091;-71
2024/04/07 09:54:39;;;;;;;4.03;0.90;;;;;;;;;;6139804;23;20515;-71
2024/04/07 09:57:06;;;;;;;4.18;1.00;;;;;;;;;;6145773;23;20021;-71
2024/04/07 09:59:31;;;;;;;4.03;1.13;;;;;;;;;;6144206;23;20036;-71
2024/04/07 10:01:57;;;;;;;2.85;1.00;;;;;;;;;;6151416;23;20096;-71
2024/04/07 10:04:25;;;;;;;3.10;1.05;;;;;;;;;;6118934;23;20021;-71
2024/04/07 10:06:52;;;;;;;5.22;0.90;;;;;;;;;;6125554;23;20470;-71
2024/04/07 10:09:17;;;;;;;1.33;0.60;;;;;;;;;;6145761;23;20483;-71
2024/04/07 10:11:46;;;;;;;5.32;1.73;;;;;;;;;;6141857;23;20076;-72
2024/04/07 10:14:15;;;;;;;6.90;1.20;;;;;;;;;;6150549;23;20025;-71
2024/04/07 10:16:43;;;;;;;4.03;1.00;;;;;;;;;;6144563;23;20025;-72
2024/04/07 10:19:08;;;;;;;2.17;0.80;;;;;;;;;;6149863;23;20567;-71
2024/04/07 10:21:33;;;;;;;5.43;0.90;;;;;;;;;;6150585;23;20096;-71
2024/04/07 10:23:59;;;;;;;5.72;1.00;;;;;;;;;;6137786;23;20024;-73
2024/04/07 10:26:28;;;;;;;4.45;0.93;;;;;;;;;;6149136;23;20067;-71
2024/04/07 10:28:56;;;;;;;4.03;1.00;;;;;;;;;;6120100;23;20036;-71
2024/04/07 10:31:25;;;;;;;3.80;0.90;;;;;;;;;;6126514;23;20044;-71
2024/04/07 10:33:51;;;;;;;1.77;0.70;;;;;;;;;;6150940;23;20053;-72
2024/04/07 10:36:17;;;;;;;2.90;0.75;;;;;;;;;;6139864;23;20096;-71
2024/04/07 10:38:48;;;;;;;5.32;1.00;;;;;;;;;;6145943;23;20046;-70
2024/04/07 10:41:20;;;;;;;4.53;0.90;;;;;;;;;;6143037;23;20028;-71
2024/04/07 10:43:46;;;;;;;2.60;0.85;;;;;;;;;;6149889;23;20028;-71
2024/04/07 10:46:12;;;;;;;4.90;0.90;;;;;;;;;;6144044;23;20063;-71
2024/04/07 10:48:37;;;;;;;1.85;0.65;;;;;;;;;;6149494;23;20017;-71
2024/04/07 10:51:06;;;;;;;2.75;0.70;;;;;;;;;;6146119;23;20032;-70
2024/04/07 10:53:32;;;;;;;2.05;0.75;;;;;;;;;;6139340;23;20021;-72
2024/04/07 10:55:57;;;;;;;6.20;0.98;;;;;;;;;;6149744;23;20024;-71
2024/04/07 10:58:23;;;;;;;3.22;0.80;;;;;;;;;;6143535;23;20913;-71
2024/04/07 11:00:48;;;;;;;2.90;0.77;;;;;;;;;;6149840;23;20021;-71
2024/04/07 11:03:14;;;;;;;2.33;0.80;;;;;;;;;;6149818;23;20072;-71
2024/04/07 11:05:40;;;;;;;3.85;0.90;;;;;;;;;;6139992;23;20017;-71
2024/04/07 11:08:05;;;;;;;1.85;0.60;;;;;;;;;;6145539;23;20024;-71
2024/04/07 11:10:37;;;;;;;2.88;0.70;;;;;;;;;;6144216;23;20021;-72
2024/04/07 11:13:04;;;;;;;1.00;0.68;;;;;;;;;;6149868;23;20040;-71
2024/04/07 11:15:30;;;;;;;1.67;0.85;;;;;;;;;;6150406;23;20021;-71
2024/04/07 11:17:57;;;;;;;3.10;0.65;;;;;;;;;;6143575;23;20025;-71
2024/04/07 11:20:22;;;;;;;3.30;0.88;;;;;;;;;;6120075;23;20324;-72
2024/04/07 11:22:48;;;;;;;1.00;0.52;;;;;;;;;;6140487;23;20032;-71
2024/04/07 11:25:14;;;;;;;2.45;0.70;;;;;;;;;;6149910;23;20028;-71
2024/04/07 11:27:39;;;;;;;2.22;0.60;;;;;;;;;;6150387;23;20395;-72
2024/04/07 11:30:05;;;;;;;3.33;0.70;;;;;;;;;;6142679;23;20025;-71
2024/04/07 11:32:30;;;;;;;1.63;0.70;;;;;;;;;;6147666;23;20029;-72
2024/04/07 11:34:56;;;;;;;2.13;0.60;;;;;;;;;;6136671;23;20024;-72
2024/04/07 11:37:21;;;;;;;5.53;0.85;;;;;;;;;;6148838;23;20024;-72
2024/04/07 11:39:53;;;;;;;2.30;0.77;;;;;;;;;;6143032;23;20021;-72
2024/04/07 11:42:24;;;;;;;2.60;1.13;;;;;;;;;;6148716;23;20561;-71
2024/04/07 11:44:50;;;;;;;1.95;0.60;;;;;;;;;;6150450;23;20036;-71
2024/04/07 11:47:15;;;;;;;3.15;0.80;;;;;;;;;;6138589;23;20049;-71
2024/04/07 11:49:42;;;;;;;2.85;0.77;;;;;;;;;;6146387;23;20571;-71
2024/04/07 11:52:08;;;;;;;2.93;0.67;;;;;;;;;;6142097;23;20028;-71
2024/04/07 11:54:33;;;;;;;2.45;0.70;;;;;;;;;;6150662;23;20021;-71
2024/04/07 11:56:59;;;;;;;3.65;0.85;;;;;;;;;;6149681;23;20505;-72
2024/04/07 11:59:24;;;;;;;4.35;0.80;;;;;;;;;;6143487;23;20466;-71
2024/04/07 12:01:50;;;;;;;2.53;0.85;;;;;;;;;;6146061;23;20561;-71
2024/04/07 12:04:16;;;;;;;1.85;0.60;;;;;;;;;;6138451;23;20021;-71
2024/04/07 12:06:41;;;;;;;1.67;0.55;;;;;;;;;;6150203;23;20025;-71
2024/04/07 12:09:08;;;;;;;5.25;1.23;;;;;;;;;;6150220;23;20113;-72
2024/04/07 12:11:34;;;;;;;2.47;0.50;;;;;;;;;;6118534;23;20339;-71
2024/04/07 12:13:59;;;;;;;4.05;1.00;;;;;;;;;;6125657;23;20067;-71
2024/04/07 12:16:25;;;;;;;4.70;0.80;;;;;;;;;;6138084;23;20029;-71
2024/04/07 12:18:50;;;;;;;3.65;0.95;;;;;;;;;;6146020;23;20509;-71
2024/04/07 12:21:16;;;;;;;3.90;1.02;;;;;;;;;;6120874;23;20336;-72
2024/04/07 12:23:41;;;;;;;3.47;0.68;;;;;;;;;;6147461;23;20025;-72
2024/04/07 12:26:08;;;;;;;1.17;0.60;;;;;;;;;;6149375;23;20412;-72
2024/04/07 12:28:34;;;;;;;1.45;0.65;;;;;;;;;;6143045;23;20470;-71
2024/04/07 12:30:59;;;;;;;3.28;0.90;;;;;;;;;;6146140;23;20024;-72
2024/04/07 12:33:25;;;;;;;4.15;0.90;;;;;;;;;;6137862;23;20084;-71
2024/04/07 12:35:50;;;;;;;3.83;1.02;;;;;;;;;;6148075;23;20060;-72
2024/04/07 12:38:16;;;;;;;1.63;0.63;;;;;;;;;;6148801;23;20106;-69
2024/04/07 12:40:41;;;;;;;3.13;1.00;;;;;;;;;;6143430;23;20036;-71
2024/04/07 12:43:07;;;;;;;4.00;0.80;;;;;;;;;;6147689;23;20083;-72
2024/04/07 12:45:33;;;;;;;2.92;0.50;;;;;;;;;;6139009;23;20100;-71
2024/04/07 12:47:59;;;;;;;2.58;0.50;;;;;;;;;;6148306;23;20518;-71
2024/04/07 12:50:24;;;;;;;3.45;0.90;;;;;;;;;;6175105;23;20072;-71
2024/04/07 12:52:51;;;;;;;3.17;0.80;;;;;;;;;;6143974;23;20017;-71
2024/04/07 12:55:19;;;;;;;1.70;0.82;;;;;;;;;;6150757;23;20028;-73
2024/04/07 12:57:45;;;;;;;2.10;0.65;;;;;;;;;;6141239;23;20021;-73
2024/04/07 13:00:14;;;;;;;2.50;0.60;;;;;;;;;;6120422;23;20032;-72
2024/04/07 13:02:43;;;;;;;3.60;0.70;;;;;;;;;;6150751;23;20028;-73
2024/04/07 13:05:08;;;;;;;2.10;0.77;;;;;;;;;;6143059;23;20029;-73
2024/04/07 13:07:34;;;;;;;3.03;0.73;;;;;;;;;;6151947;23;20025;-72
2024/04/07 13:09:59;;;;;;;1.00;0.52;;;;;;;;;;6144026;23;20052;-72
2024/04/07 13:12:25;;;;;;;5.15;0.50;;;;;;;;;;6145436;23;20025;-72
2024/04/07 13:14:51;;;;;;;1.88;0.60;;;;;;;;;;6141681;23;20494;-72
2024/04/07 13:17:16;;;;;;;1.13;0.60;;;;;;;;;;6148458;23;20509;-72
2024/04/07 13:19:42;;;;;;;3.13;0.60;;;;;;;;;;6151285;23;20029;-71
2024/04/07 13:22:07;;;;;;;3.17;0.70;;;;;;;;;;6142647;23;20028;-72
2024/04/07 13:24:33;;;;;;;4.90;0.88;;;;;;;;;;6151044;23;20021;-72
2024/04/07 13:26:58;;;;;;;2.63;0.60;;;;;;;;;;6143429;23;20637;-72
2024/04/07 13:29:24;;;;;;;3.10;0.70;;;;;;;;;;6120002;23;20136;-73
2024/04/07 13:31:49;;;;;;;1.45;0.50;;;;;;;;;;6150561;23;20029;-72
2024/04/07 13:34:15;;;;;;;1.10;0.60;;;;;;;;;;6143161;23;20518;-72
2024/04/07 13:36:40;;;;;;;2.40;0.70;;;;;;;;;;6125902;23;20040;-72
2024/04/07 13:39:10;;;;;;;1.40;0.50;;;;;;;;;;6144130;23;20021;-72
2024/04/07 13:41:37;;;;;;;0.93;0.50;;;;;;;;;;6144812;23;20028;-71
2024/04/07 13:44:03;;;;;;;2.50;0.50;;;;;;;;;;6147640;23;20025;-72
2024/04/07 13:46:28;;;;;;;2.40;0.68;;;;;;;;;;6143614;23;20063;-72
2024/04/07 13:48:53;;;;;;;3.40;0.50;;;;;;;;;;6150540;23;20071;-72
2024/04/07 13:51:19;;;;;;;2.45;0.70;;;;;;;;;;6143119;23;20031;-73
2024/04/07 13:53:44;;;;;;;1.52;0.55;;;;;;;;;;6150060;23;20032;-72
2024/04/07 13:56:10;;;;;;;0.90;0.50;;;;;;;;;;6142795;23;20021;-72
2024/04/07 13:58:35;;;;;;;0.60;0.52;;;;;;;;;;6118358;23;20059;-71
2024/04/07 14:01:02;;;;;;;1.80;0.60;;;;;;;;;;6150486;23;20029;-71
2024/04/07 14:03:28;;;;;;;1.13;0.70;;;;;;;;;;6143049;23;20079;-71
2024/04/07 14:05:54;;;;;;;3.17;0.80;;;;;;;;;;6126040;23;20021;-71
2024/04/07 14:08:19;;;;;;;2.40;0.57;;;;;;;;;;6145696;23;20096;-73
2024/04/07 14:10:48;;;;;;;3.20;0.60;;;;;;;;;;6140046;23;20656;-71
2024/04/07 14:13:13;;;;;;;2.20;0.80;;;;;;;;;;6149650;23;20025;-71
2024/04/07 14:15:39;;;;;;;1.13;0.70;;;;;;;;;;6169667;23;20750;-72
2024/04/07 14:18:04;;;;;;;1.73;0.60;;;;;;;;;;6149071;23;20025;-72
2024/04/07 14:20:30;;;;;;;1.30;0.60;;;;;;;;;;6144485;23;20546;-72
2024/04/07 14:22:55;;;;;;;1.52;0.73;;;;;;;;;;6147759;23;20465;-73
2024/04/07 14:25:21;;;;;;;3.10;0.85;;;;;;;;;;6121765;23;20095;-71
2024/04/07 14:27:49;;;;;;;2.22;0.60;;;;;;;;;;6143590;23;20027;-72
2024/04/07 14:30:15;;;;;;;1.27;0.63;;;;;;;;;;6151403;23;20017;-71
2024/04/07 14:32:41;;;;;;;3.28;0.57;;;;;;;;;;6143799;23;20047;-71
2024/04/07 14:35:06;;;;;;;1.13;0.80;;;;;;;;;;6149480;23;20028;-72
2024/04/07 14:37:32;;;;;;;1.67;0.55;;;;;;;;;;6145342;23;20029;-72